LNI3961 WADD-WICC
Flight info
| Callsign | LNI3961 |
|---|---|
| Flight time | 1h 31m |
| Altitude | 32000 |
| Route | OKANG1B OKANG DCT SBR W16 KIDET W16S CA CA1X |
| Aircraft | B738/M-SDE2E3FGHIRWXY/LB1 |
Departure
| Time | 2026-04-17 07:59 |
|---|---|
| Airport | Denpasar I Gusti Ngurah Rai International Airport (WADD) |
Arrival
| Time | 2026-04-17 09:30 |
|---|---|
| Airport | Husein Sastranegara International Airport (WICC) |
| Time | Latitude | Longitude | Altitude | Speed | Heading |
|---|---|---|---|---|---|
| 2026-04-17 07:28 | -8.74491 | 115.16133 | 22 ft | 0 kts | 88° |
| 2026-04-17 07:48 | -8.74492 | 115.16131 | 22 ft | 2 kts | 88° |
| 2026-04-17 07:48 | -8.74493 | 115.16104 | 22 ft | 3 kts | 88° |
| 2026-04-17 07:49 | -8.74491 | 115.16081 | 22 ft | 4 kts | 121° |
| 2026-04-17 07:49 | -8.74472 | 115.16065 | 22 ft | 4 kts | 161° |
| 2026-04-17 07:49 | -8.74452 | 115.16061 | 22 ft | 1 kts | 178° |
| 2026-04-17 07:49 | -8.74448 | 115.16061 | 22 ft | 0 kts | 178° |
| 2026-04-17 07:53 | -8.74468 | 115.16062 | 22 ft | 4 kts | 178° |
| 2026-04-17 07:53 | -8.74490 | 115.16062 | 22 ft | 5 kts | 178° |
| 2026-04-17 07:54 | -8.74519 | 115.16064 | 22 ft | 3 kts | 178° |
| 2026-04-17 07:54 | -8.74550 | 115.16065 | 22 ft | 6 kts | 178° |
| 2026-04-17 07:54 | -8.74594 | 115.16067 | 22 ft | 6 kts | 178° |
| 2026-04-17 07:54 | -8.74643 | 115.16069 | 22 ft | 8 kts | 181° |
| 2026-04-17 07:55 | -8.74693 | 115.16040 | 22 ft | 9 kts | 239° |
| 2026-04-17 07:55 | -8.74703 | 115.15971 | 22 ft | 11 kts | 268° |
| 2026-04-17 07:55 | -8.74708 | 115.15875 | 22 ft | 16 kts | 267° |
| 2026-04-17 07:55 | -8.74713 | 115.15759 | 22 ft | 18 kts | 267° |
| 2026-04-17 07:56 | -8.74717 | 115.15628 | 22 ft | 20 kts | 268° |
| 2026-04-17 07:56 | -8.74724 | 115.15483 | 22 ft | 20 kts | 267° |
| 2026-04-17 07:56 | -8.74726 | 115.15446 | 22 ft | 1 kts | 265° |
| 2026-04-17 07:56 | -8.74729 | 115.15430 | 22 ft | 3 kts | 254° |
| 2026-04-17 07:57 | -8.74754 | 115.15397 | 22 ft | 7 kts | 211° |
| 2026-04-17 07:57 | -8.74824 | 115.15388 | 22 ft | 11 kts | 180° |
| 2026-04-17 07:57 | -8.74873 | 115.15396 | 22 ft | 7 kts | 150° |
| 2026-04-17 07:57 | -8.74890 | 115.15433 | 22 ft | 5 kts | 92° |
| 2026-04-17 07:58 | -8.74887 | 115.15526 | 22 ft | 34 kts | 87° |
| 2026-04-17 07:58 | -8.74867 | 115.15978 | 22 ft | 93 kts | 89° |
| 2026-04-17 07:58 | -8.74836 | 115.16805 | 23 ft | 144 kts | 89° |
| 2026-04-17 07:58 | -8.74803 | 115.17893 | 376 ft | 160 kts | 90° |
| 2026-04-17 07:59 | -8.74762 | 115.19038 | 1057 ft | 162 kts | 90° |
| 2026-04-17 07:59 | -8.74692 | 115.20184 | 1748 ft | 163 kts | 91° |
| 2026-04-17 07:59 | -8.74625 | 115.21319 | 2338 ft | 165 kts | 91° |
| 2026-04-17 07:59 | -8.74573 | 115.22529 | 2758 ft | 177 kts | 93° |
| 2026-04-17 08:00 | -8.74535 | 115.23790 | 3295 ft | 184 kts | 93° |
| 2026-04-17 08:00 | -8.74492 | 115.25152 | 3590 ft | 206 kts | 92° |
| 2026-04-17 08:00 | -8.74440 | 115.26678 | 3837 ft | 227 kts | 92° |
| 2026-04-17 08:00 | -8.74380 | 115.28352 | 4082 ft | 250 kts | 91° |
| 2026-04-17 08:01 | -8.74311 | 115.30172 | 4505 ft | 266 kts | 91° |
| 2026-04-17 08:01 | -8.74237 | 115.32077 | 5082 ft | 273 kts | 90° |
| 2026-04-17 08:01 | -8.74161 | 115.33975 | 5972 ft | 271 kts | 90° |
| 2026-04-17 08:01 | -8.74084 | 115.35873 | 6657 ft | 275 kts | 88° |
| 2026-04-17 08:02 | -8.74001 | 115.37877 | 6973 ft | 295 kts | 87° |
| 2026-04-17 08:02 | -8.73911 | 115.40000 | 7419 ft | 307 kts | 87° |
| 2026-04-17 08:02 | -8.73819 | 115.42194 | 8117 ft | 309 kts | 87° |
| 2026-04-17 08:02 | -8.73726 | 115.44378 | 8788 ft | 313 kts | 87° |
| 2026-04-17 08:03 | -8.73633 | 115.46563 | 9440 ft | 316 kts | 87° |
| 2026-04-17 08:03 | -8.73508 | 115.48791 | 10083 ft | 319 kts | 82° |
| 2026-04-17 08:03 | -8.72858 | 115.50939 | 10631 ft | 324 kts | 62° |
| 2026-04-17 08:03 | -8.71602 | 115.52851 | 11087 ft | 330 kts | 49° |
| 2026-04-17 08:04 | -8.70027 | 115.54602 | 11361 ft | 345 kts | 43° |
| 2026-04-17 08:04 | -8.68259 | 115.56339 | 11587 ft | 361 kts | 41° |
| 2026-04-17 08:04 | -8.66406 | 115.58127 | 11795 ft | 377 kts | 41° |
| 2026-04-17 08:04 | -8.65111 | 115.59392 | 11927 ft | 388 kts | 41° |
| 2026-04-17 08:05 | -8.62184 | 115.61517 | 12214 ft | 397 kts | 21° |
| 2026-04-17 08:05 | -8.59527 | 115.62260 | 12655 ft | 395 kts | 3° |
| 2026-04-17 08:05 | -8.56790 | 115.62164 | 13159 ft | 392 kts | 346° |
| 2026-04-17 08:05 | -8.54245 | 115.61258 | 13661 ft | 388 kts | 329° |
| 2026-04-17 08:06 | -8.52118 | 115.59644 | 14155 ft | 386 kts | 312° |
| 2026-04-17 08:06 | -8.51000 | 115.58215 | 14488 ft | 385 kts | 300° |
| 2026-04-17 08:06 | -8.49648 | 115.54920 | 15142 ft | 386 kts | 283° |
| 2026-04-17 08:06 | -8.49334 | 115.53118 | 15477 ft | 387 kts | 277° |
| 2026-04-17 08:07 | -8.48674 | 115.49554 | 16106 ft | 391 kts | 284° |
| 2026-04-17 08:07 | -8.48127 | 115.47780 | 16418 ft | 394 kts | 288° |
| 2026-04-17 08:07 | -8.47132 | 115.45219 | 16867 ft | 397 kts | 291° |
| 2026-04-17 08:07 | -8.46066 | 115.42636 | 17305 ft | 399 kts | 291° |
| 2026-04-17 08:08 | -8.44975 | 115.40050 | 17732 ft | 402 kts | 291° |
| 2026-04-17 08:08 | -8.43876 | 115.37447 | 18146 ft | 405 kts | 291° |
| 2026-04-17 08:08 | -8.42767 | 115.34819 | 18553 ft | 407 kts | 291° |
| 2026-04-17 08:08 | -8.41654 | 115.32183 | 18946 ft | 409 kts | 291° |
| 2026-04-17 08:09 | -8.40533 | 115.29526 | 19327 ft | 412 kts | 291° |
| 2026-04-17 08:09 | -8.39404 | 115.26852 | 19702 ft | 414 kts | 291° |
| 2026-04-17 08:09 | -8.38272 | 115.24169 | 20058 ft | 417 kts | 292° |
| 2026-04-17 08:09 | -8.37133 | 115.21473 | 20407 ft | 419 kts | 292° |
| 2026-04-17 08:10 | -8.35984 | 115.18752 | 20745 ft | 421 kts | 292° |
| 2026-04-17 08:10 | -8.34838 | 115.16037 | 21069 ft | 423 kts | 292° |
| 2026-04-17 08:10 | -8.33678 | 115.13288 | 21388 ft | 426 kts | 291° |
| 2026-04-17 08:10 | -8.32519 | 115.10536 | 21699 ft | 428 kts | 291° |
| 2026-04-17 08:11 | -8.31351 | 115.07764 | 21997 ft | 430 kts | 292° |
| 2026-04-17 08:11 | -8.30174 | 115.04972 | 22290 ft | 432 kts | 292° |
| 2026-04-17 08:11 | -8.28998 | 115.02184 | 22573 ft | 434 kts | 292° |
| 2026-04-17 08:11 | -8.27812 | 114.99372 | 22848 ft | 436 kts | 292° |
| 2026-04-17 08:12 | -8.26624 | 114.96558 | 23113 ft | 437 kts | 292° |
| 2026-04-17 08:12 | -8.25440 | 114.93754 | 23371 ft | 439 kts | 292° |
| 2026-04-17 08:12 | -8.24225 | 114.90877 | 23627 ft | 441 kts | 292° |
| 2026-04-17 08:12 | -8.23019 | 114.88021 | 23871 ft | 443 kts | 292° |
| 2026-04-17 08:13 | -8.21823 | 114.85192 | 24107 ft | 444 kts | 292° |
| 2026-04-17 08:13 | -8.20607 | 114.82315 | 24339 ft | 446 kts | 292° |
| 2026-04-17 08:13 | -8.19386 | 114.79428 | 24565 ft | 448 kts | 292° |
| 2026-04-17 08:14 | -8.16930 | 114.73620 | 25009 ft | 450 kts | 292° |
| 2026-04-17 08:14 | -8.15700 | 114.70715 | 25226 ft | 452 kts | 292° |
| 2026-04-17 08:14 | -8.14463 | 114.67792 | 25442 ft | 453 kts | 292° |
| 2026-04-17 08:14 | -8.13223 | 114.64862 | 25648 ft | 454 kts | 292° |
| 2026-04-17 08:15 | -8.11983 | 114.61933 | 25839 ft | 456 kts | 292° |
| 2026-04-17 08:15 | -8.10735 | 114.58987 | 26025 ft | 457 kts | 292° |
| 2026-04-17 08:15 | -8.09482 | 114.56029 | 26209 ft | 458 kts | 292° |
| 2026-04-17 08:15 | -8.08229 | 114.53073 | 26387 ft | 460 kts | 292° |
| 2026-04-17 08:16 | -8.06966 | 114.50092 | 26560 ft | 461 kts | 292° |
| 2026-04-17 08:16 | -8.05704 | 114.47115 | 26728 ft | 462 kts | 292° |
| 2026-04-17 08:16 | -8.04455 | 114.44170 | 26888 ft | 463 kts | 292° |
| 2026-04-17 08:16 | -8.03167 | 114.41133 | 27040 ft | 465 kts | 292° |
| 2026-04-17 08:17 | -8.01907 | 114.38164 | 27223 ft | 465 kts | 292° |
| 2026-04-17 08:17 | -8.00635 | 114.35165 | 27461 ft | 464 kts | 292° |
| 2026-04-17 08:17 | -7.99365 | 114.32174 | 27687 ft | 464 kts | 292° |
| 2026-04-17 08:17 | -7.98095 | 114.29182 | 27912 ft | 464 kts | 292° |
| 2026-04-17 08:18 | -7.96820 | 114.26181 | 28141 ft | 463 kts | 292° |
| 2026-04-17 08:18 | -7.95552 | 114.23196 | 28371 ft | 463 kts | 292° |
| 2026-04-17 08:18 | -7.94285 | 114.20213 | 28600 ft | 462 kts | 292° |
| 2026-04-17 08:18 | -7.93034 | 114.17267 | 28827 ft | 462 kts | 292° |
| 2026-04-17 08:19 | -7.91754 | 114.14257 | 29059 ft | 461 kts | 292° |
| 2026-04-17 08:19 | -7.90507 | 114.11324 | 29284 ft | 461 kts | 292° |
| 2026-04-17 08:19 | -7.89243 | 114.08350 | 29514 ft | 461 kts | 292° |
| 2026-04-17 08:19 | -7.87980 | 114.05380 | 29744 ft | 460 kts | 292° |
| 2026-04-17 08:20 | -7.86720 | 114.02420 | 29976 ft | 460 kts | 292° |
| 2026-04-17 08:20 | -7.85456 | 113.99448 | 30209 ft | 459 kts | 292° |
| 2026-04-17 08:20 | -7.84198 | 113.96492 | 30442 ft | 459 kts | 292° |
| 2026-04-17 08:20 | -7.82939 | 113.93535 | 30676 ft | 458 kts | 292° |
| 2026-04-17 08:21 | -7.81681 | 113.90581 | 30911 ft | 458 kts | 292° |
| 2026-04-17 08:21 | -7.80426 | 113.87634 | 31147 ft | 457 kts | 292° |
| 2026-04-17 08:21 | -7.79169 | 113.84684 | 31386 ft | 457 kts | 292° |
| 2026-04-17 08:21 | -7.77915 | 113.81740 | 31622 ft | 456 kts | 292° |
| 2026-04-17 08:22 | -7.76664 | 113.78804 | 31834 ft | 456 kts | 292° |
| 2026-04-17 08:22 | -7.74150 | 113.72907 | 31842 ft | 456 kts | 292° |
| 2026-04-17 08:23 | -7.71643 | 113.67029 | 31846 ft | 455 kts | 292° |
| 2026-04-17 08:23 | -7.69158 | 113.61205 | 31846 ft | 456 kts | 292° |
| 2026-04-17 08:24 | -7.66655 | 113.55341 | 31846 ft | 455 kts | 292° |
| 2026-04-17 08:24 | -7.64144 | 113.49463 | 31846 ft | 456 kts | 292° |
| 2026-04-17 08:25 | -7.61637 | 113.43594 | 31846 ft | 455 kts | 292° |
| 2026-04-17 08:25 | -7.59128 | 113.37725 | 31846 ft | 456 kts | 292° |
| 2026-04-17 08:26 | -7.56630 | 113.31884 | 31846 ft | 456 kts | 292° |
| 2026-04-17 08:26 | -7.54120 | 113.26015 | 31846 ft | 456 kts | 292° |
| 2026-04-17 08:27 | -7.51609 | 113.20147 | 31846 ft | 456 kts | 292° |
| 2026-04-17 08:27 | -7.49093 | 113.14271 | 31846 ft | 456 kts | 292° |
| 2026-04-17 08:28 | -7.46582 | 113.08410 | 31846 ft | 456 kts | 292° |
| 2026-04-17 08:28 | -7.44072 | 113.02551 | 31846 ft | 456 kts | 292° |
| 2026-04-17 08:29 | -7.41559 | 112.96690 | 31846 ft | 456 kts | 292° |
| 2026-04-17 08:29 | -7.39047 | 112.90833 | 31846 ft | 456 kts | 292° |
| 2026-04-17 08:30 | -7.36549 | 112.85010 | 31846 ft | 456 kts | 292° |
| 2026-04-17 08:30 | -7.34032 | 112.79147 | 31846 ft | 456 kts | 292° |
| 2026-04-17 08:31 | -7.31514 | 112.73284 | 31846 ft | 456 kts | 292° |
| 2026-04-17 08:31 | -7.28996 | 112.67421 | 31846 ft | 456 kts | 292° |
| 2026-04-17 08:32 | -7.26480 | 112.61567 | 31846 ft | 456 kts | 292° |
| 2026-04-17 08:32 | -7.23964 | 112.55714 | 31846 ft | 456 kts | 292° |
| 2026-04-17 08:33 | -7.21442 | 112.49851 | 31846 ft | 456 kts | 292° |
| 2026-04-17 08:33 | -7.18937 | 112.44031 | 31846 ft | 456 kts | 292° |
| 2026-04-17 08:34 | -7.16415 | 112.38172 | 31846 ft | 456 kts | 292° |
| 2026-04-17 08:34 | -7.13894 | 112.32317 | 31846 ft | 456 kts | 292° |
| 2026-04-17 08:35 | -7.11375 | 112.26470 | 31846 ft | 456 kts | 292° |
| 2026-04-17 08:35 | -7.08850 | 112.20611 | 31846 ft | 455 kts | 292° |
| 2026-04-17 08:36 | -7.06325 | 112.14755 | 31846 ft | 455 kts | 292° |
| 2026-04-17 08:36 | -7.03801 | 112.08904 | 31846 ft | 455 kts | 292° |
| 2026-04-17 08:37 | -7.01279 | 112.03059 | 31846 ft | 455 kts | 292° |
| 2026-04-17 08:37 | -6.98770 | 111.97246 | 31846 ft | 455 kts | 292° |
| 2026-04-17 08:38 | -6.96241 | 111.91391 | 31846 ft | 455 kts | 292° |
| 2026-04-17 08:38 | -6.93712 | 111.85536 | 31846 ft | 455 kts | 292° |
| 2026-04-17 08:39 | -6.91185 | 111.79690 | 31846 ft | 455 kts | 292° |
| 2026-04-17 08:39 | -6.88655 | 111.73836 | 31846 ft | 455 kts | 292° |
| 2026-04-17 08:40 | -6.86145 | 111.68035 | 31846 ft | 455 kts | 292° |
| 2026-04-17 08:40 | -6.83620 | 111.62197 | 31846 ft | 455 kts | 292° |
| 2026-04-17 08:41 | -6.81092 | 111.56357 | 31846 ft | 455 kts | 292° |
| 2026-04-17 08:41 | -6.78566 | 111.50523 | 31846 ft | 455 kts | 292° |
| 2026-04-17 08:42 | -6.76037 | 111.44685 | 31846 ft | 455 kts | 292° |
| 2026-04-17 08:42 | -6.73507 | 111.38847 | 31846 ft | 455 kts | 292° |
| 2026-04-17 08:43 | -6.70981 | 111.33018 | 31846 ft | 455 kts | 292° |
| 2026-04-17 08:43 | -6.68467 | 111.27222 | 31846 ft | 455 kts | 292° |
| 2026-04-17 08:44 | -6.65935 | 111.21384 | 31846 ft | 455 kts | 292° |
| 2026-04-17 08:44 | -6.63406 | 111.15557 | 31846 ft | 455 kts | 292° |
| 2026-04-17 08:45 | -6.60872 | 111.09720 | 31846 ft | 455 kts | 292° |
| 2026-04-17 08:45 | -6.58342 | 111.03894 | 31846 ft | 455 kts | 292° |
| 2026-04-17 08:46 | -6.55806 | 110.98057 | 31846 ft | 455 kts | 292° |
| 2026-04-17 08:46 | -6.53271 | 110.92223 | 31846 ft | 455 kts | 292° |
| 2026-04-17 08:47 | -6.50734 | 110.86386 | 31846 ft | 455 kts | 292° |
| 2026-04-17 08:47 | -6.48219 | 110.80604 | 31846 ft | 455 kts | 292° |
| 2026-04-17 08:48 | -6.45680 | 110.74767 | 31846 ft | 455 kts | 292° |
| 2026-04-17 08:48 | -6.43144 | 110.68939 | 31846 ft | 455 kts | 292° |
| 2026-04-17 08:49 | -6.40616 | 110.63111 | 31846 ft | 455 kts | 292° |
| 2026-04-17 08:49 | -6.38094 | 110.57312 | 31846 ft | 455 kts | 292° |
| 2026-04-17 08:50 | -6.35554 | 110.51477 | 31846 ft | 455 kts | 292° |
| 2026-04-17 08:50 | -6.33446 | 110.46634 | 31846 ft | 455 kts | 292° |
| 2026-04-17 08:51 | -6.31035 | 110.40757 | 31845 ft | 454 kts | 286° |
| 2026-04-17 08:51 | -6.29932 | 110.34537 | 31847 ft | 453 kts | 273° |
| 2026-04-17 08:52 | -6.29830 | 110.28202 | 31846 ft | 453 kts | 269° |
| 2026-04-17 08:52 | -6.29865 | 110.21876 | 31846 ft | 453 kts | 270° |
| 2026-04-17 08:53 | -6.29891 | 110.15548 | 31846 ft | 453 kts | 270° |
| 2026-04-17 08:53 | -6.29912 | 110.09248 | 31846 ft | 453 kts | 270° |
| 2026-04-17 08:54 | -6.29931 | 110.02921 | 31846 ft | 453 kts | 270° |
| 2026-04-17 08:54 | -6.29953 | 109.96584 | 31846 ft | 453 kts | 270° |
| 2026-04-17 08:55 | -6.29971 | 109.90252 | 31846 ft | 453 kts | 270° |
| 2026-04-17 08:55 | -6.29987 | 109.83919 | 31846 ft | 453 kts | 270° |
| 2026-04-17 08:56 | -6.30002 | 109.77583 | 31846 ft | 453 kts | 270° |
| 2026-04-17 08:56 | -6.30016 | 109.71254 | 31846 ft | 453 kts | 270° |
| 2026-04-17 08:57 | -6.30029 | 109.64976 | 31846 ft | 453 kts | 270° |
| 2026-04-17 08:57 | -6.30045 | 109.58642 | 31846 ft | 453 kts | 270° |
| 2026-04-17 08:58 | -6.30056 | 109.52312 | 31846 ft | 453 kts | 270° |
| 2026-04-17 08:58 | -6.30066 | 109.45979 | 31846 ft | 453 kts | 270° |
| 2026-04-17 08:59 | -6.30074 | 109.39648 | 31846 ft | 453 kts | 270° |
| 2026-04-17 08:59 | -6.30624 | 109.33363 | 31846 ft | 453 kts | 257° |
| 2026-04-17 09:00 | -6.32838 | 109.27467 | 31847 ft | 455 kts | 245° |
| 2026-04-17 09:00 | -6.35719 | 109.21803 | 31846 ft | 455 kts | 244° |
| 2026-04-17 09:01 | -6.38654 | 109.16156 | 31846 ft | 455 kts | 244° |
| 2026-04-17 09:01 | -6.41588 | 109.10501 | 31846 ft | 455 kts | 244° |
| 2026-04-17 09:02 | -6.44514 | 109.04853 | 31846 ft | 455 kts | 244° |
| 2026-04-17 09:02 | -6.47445 | 108.99198 | 31846 ft | 455 kts | 244° |
| 2026-04-17 09:02 | -6.48893 | 108.96405 | 31625 ft | 456 kts | 244° |
| 2026-04-17 09:03 | -6.50354 | 108.93586 | 31377 ft | 456 kts | 244° |
| 2026-04-17 09:03 | -6.51819 | 108.90756 | 31126 ft | 456 kts | 244° |
| 2026-04-17 09:03 | -6.53288 | 108.87919 | 30838 ft | 457 kts | 244° |
| 2026-04-17 09:03 | -6.54752 | 108.85090 | 30085 ft | 455 kts | 244° |
| 2026-04-17 09:04 | -6.56219 | 108.82258 | 29251 ft | 456 kts | 244° |
| 2026-04-17 09:04 | -6.57684 | 108.79429 | 28426 ft | 457 kts | 244° |
| 2026-04-17 09:04 | -6.59153 | 108.76588 | 27583 ft | 458 kts | 244° |
| 2026-04-17 09:04 | -6.60551 | 108.73885 | 26940 ft | 455 kts | 244° |
| 2026-04-17 09:06 | -6.61779 | 108.71509 | 26474 ft | 449 kts | 244° |
| 2026-04-17 09:07 | -6.63201 | 108.68755 | 25875 ft | 445 kts | 244° |
| 2026-04-17 09:07 | -6.64599 | 108.66049 | 25276 ft | 440 kts | 244° |
| 2026-04-17 09:07 | -6.66025 | 108.63285 | 24660 ft | 436 kts | 244° |
| 2026-04-17 09:07 | -6.67396 | 108.60632 | 24064 ft | 432 kts | 244° |
| 2026-04-17 09:08 | -6.68775 | 108.57962 | 23460 ft | 428 kts | 244° |
| 2026-04-17 09:08 | -6.70181 | 108.55343 | 22850 ft | 425 kts | 238° |
| 2026-04-17 09:08 | -6.72215 | 108.53229 | 22363 ft | 423 kts | 218° |
| 2026-04-17 09:08 | -6.74867 | 108.51926 | 21806 ft | 428 kts | 201° |
| 2026-04-17 09:09 | -6.77776 | 108.51234 | 21227 ft | 432 kts | 193° |
| 2026-04-17 09:09 | -6.80745 | 108.50768 | 20634 ft | 430 kts | 192° |
| 2026-04-17 09:09 | -6.83693 | 108.50287 | 20043 ft | 425 kts | 193° |
| 2026-04-17 09:09 | -6.86579 | 108.49724 | 19425 ft | 425 kts | 192° |
| 2026-04-17 09:10 | -6.92459 | 108.48344 | 18185 ft | 437 kts | 193° |
| 2026-04-17 09:10 | -6.95431 | 108.47699 | 17571 ft | 437 kts | 193° |
| 2026-04-17 09:10 | -6.98385 | 108.46963 | 16959 ft | 434 kts | 196° |
| 2026-04-17 09:11 | -7.01281 | 108.46145 | 16354 ft | 432 kts | 198° |
| 2026-04-17 09:11 | -7.04155 | 108.45276 | 15749 ft | 430 kts | 198° |
| 2026-04-17 09:11 | -7.07015 | 108.44395 | 15158 ft | 427 kts | 198° |
| 2026-04-17 09:11 | -7.09794 | 108.43535 | 14562 ft | 418 kts | 199° |
| 2026-04-17 09:12 | -7.12550 | 108.42681 | 14089 ft | 411 kts | 199° |
| 2026-04-17 09:12 | -7.15212 | 108.41854 | 13969 ft | 391 kts | 199° |
| 2026-04-17 09:12 | -7.17752 | 108.41064 | 13854 ft | 371 kts | 199° |
| 2026-04-17 09:12 | -7.20154 | 108.40317 | 13750 ft | 353 kts | 199° |
| 2026-04-17 09:13 | -7.22377 | 108.39625 | 13629 ft | 339 kts | 199° |
| 2026-04-17 09:13 | -7.24600 | 108.38932 | 13317 ft | 331 kts | 199° |
| 2026-04-17 09:13 | -7.26792 | 108.38249 | 12913 ft | 327 kts | 199° |
| 2026-04-17 09:13 | -7.28956 | 108.37575 | 12484 ft | 325 kts | 200° |
| 2026-04-17 09:14 | -7.30956 | 108.36952 | 12114 ft | 322 kts | 200° |
| 2026-04-17 09:14 | -7.33054 | 108.36292 | 12024 ft | 316 kts | 202° |
| 2026-04-17 09:14 | -7.34891 | 108.35164 | 11651 ft | 309 kts | 229° |
| 2026-04-17 09:14 | -7.36021 | 108.33382 | 11330 ft | 296 kts | 256° |
| 2026-04-17 09:15 | -7.36125 | 108.31394 | 11292 ft | 281 kts | 286° |
| 2026-04-17 09:15 | -7.35246 | 108.29676 | 11310 ft | 278 kts | 310° |
| 2026-04-17 09:15 | -7.34106 | 108.28081 | 11308 ft | 283 kts | 303° |
| 2026-04-17 09:15 | -7.33192 | 108.26303 | 11143 ft | 287 kts | 296° |
| 2026-04-17 09:16 | -7.32416 | 108.24459 | 10960 ft | 284 kts | 298° |
| 2026-04-17 09:16 | -7.31402 | 108.22765 | 10781 ft | 280 kts | 309° |
| 2026-04-17 09:16 | -7.30037 | 108.21412 | 10610 ft | 278 kts | 324° |
| 2026-04-17 09:16 | -7.28366 | 108.20453 | 10442 ft | 277 kts | 336° |
| 2026-04-17 09:17 | -7.26548 | 108.19796 | 10270 ft | 277 kts | 341° |
| 2026-04-17 09:17 | -7.24719 | 108.19188 | 10098 ft | 278 kts | 340° |
| 2026-04-17 09:17 | -7.22896 | 108.18536 | 9922 ft | 277 kts | 339° |
| 2026-04-17 09:17 | -7.21096 | 108.17851 | 9747 ft | 276 kts | 338° |
| 2026-04-17 09:18 | -7.19318 | 108.17165 | 9574 ft | 275 kts | 337° |
| 2026-04-17 09:18 | -7.17598 | 108.16332 | 9402 ft | 275 kts | 331° |
| 2026-04-17 09:18 | -7.15984 | 108.15288 | 9228 ft | 273 kts | 323° |
| 2026-04-17 09:18 | -7.14552 | 108.14056 | 9059 ft | 272 kts | 318° |
| 2026-04-17 09:19 | -7.13164 | 108.12764 | 8888 ft | 271 kts | 319° |
| 2026-04-17 09:19 | -7.11744 | 108.11499 | 8717 ft | 270 kts | 319° |
| 2026-04-17 09:19 | -7.10331 | 108.10250 | 8547 ft | 270 kts | 319° |
| 2026-04-17 09:19 | -7.08928 | 108.09008 | 8378 ft | 269 kts | 319° |
| 2026-04-17 09:20 | -7.07592 | 108.07700 | 8209 ft | 269 kts | 313° |
| 2026-04-17 09:20 | -7.06481 | 108.06184 | 8041 ft | 269 kts | 302° |
| 2026-04-17 09:20 | -7.05722 | 108.04470 | 7876 ft | 270 kts | 290° |
| 2026-04-17 09:20 | -7.05593 | 108.04096 | 7841 ft | 270 kts | 289° |
| 2026-04-17 09:21 | -7.05023 | 108.02282 | 7671 ft | 272 kts | 287° |
| 2026-04-17 09:21 | -7.04497 | 108.00450 | 7501 ft | 274 kts | 285° |
| 2026-04-17 09:21 | -7.03971 | 107.98602 | 7329 ft | 276 kts | 287° |
| 2026-04-17 09:21 | -7.03380 | 107.96752 | 7155 ft | 277 kts | 288° |
| 2026-04-17 09:22 | -7.02774 | 107.94919 | 6981 ft | 276 kts | 289° |
| 2026-04-17 09:22 | -7.02166 | 107.93099 | 6807 ft | 272 kts | 289° |
| 2026-04-17 09:22 | -7.01561 | 107.91308 | 6639 ft | 268 kts | 289° |
| 2026-04-17 09:22 | -7.00961 | 107.89539 | 6469 ft | 263 kts | 289° |
| 2026-04-17 09:23 | -7.00373 | 107.87813 | 6305 ft | 257 kts | 289° |
| 2026-04-17 09:23 | -6.99798 | 107.86123 | 6144 ft | 251 kts | 289° |
| 2026-04-17 09:23 | -6.99240 | 107.84484 | 5986 ft | 245 kts | 289° |
| 2026-04-17 09:23 | -6.98699 | 107.82899 | 5835 ft | 239 kts | 289° |
| 2026-04-17 09:24 | -6.98167 | 107.81341 | 5712 ft | 231 kts | 289° |
| 2026-04-17 09:24 | -6.97649 | 107.79822 | 5555 ft | 223 kts | 289° |
| 2026-04-17 09:24 | -6.97151 | 107.78367 | 5413 ft | 214 kts | 289° |
| 2026-04-17 09:24 | -6.96683 | 107.76994 | 5289 ft | 202 kts | 289° |
| 2026-04-17 09:25 | -6.96245 | 107.75715 | 5148 ft | 190 kts | 289° |
| 2026-04-17 09:25 | -6.95823 | 107.74479 | 5023 ft | 184 kts | 289° |
| 2026-04-17 09:25 | -6.95412 | 107.73262 | 4911 ft | 179 kts | 289° |
| 2026-04-17 09:25 | -6.95009 | 107.72076 | 4805 ft | 179 kts | 289° |
| 2026-04-17 09:26 | -6.94610 | 107.70910 | 4727 ft | 177 kts | 289° |
| 2026-04-17 09:26 | -6.94216 | 107.69757 | 4600 ft | 172 kts | 289° |
| 2026-04-17 09:26 | -6.93832 | 107.68636 | 4503 ft | 163 kts | 289° |
| 2026-04-17 09:26 | -6.93471 | 107.67583 | 4384 ft | 158 kts | 289° |
| 2026-04-17 09:27 | -6.93115 | 107.66542 | 4145 ft | 154 kts | 289° |
| 2026-04-17 09:27 | -6.92773 | 107.65544 | 3932 ft | 149 kts | 289° |
| 2026-04-17 09:27 | -6.92441 | 107.64573 | 3743 ft | 147 kts | 289° |
| 2026-04-17 09:27 | -6.92107 | 107.63596 | 3548 ft | 145 kts | 289° |
| 2026-04-17 09:28 | -6.91815 | 107.62626 | 3321 ft | 149 kts | 286° |
| 2026-04-17 09:28 | -6.91786 | 107.62527 | 3288 ft | 149 kts | 286° |
| 2026-04-17 09:28 | -6.91756 | 107.62424 | 3251 ft | 149 kts | 287° |
| 2026-04-17 09:28 | -6.91430 | 107.61447 | 2996 ft | 145 kts | 290° |
| 2026-04-17 09:29 | -6.91069 | 107.60512 | 2808 ft | 142 kts | 291° |
| 2026-04-17 09:29 | -6.90744 | 107.59579 | 2631 ft | 141 kts | 289° |
| 2026-04-17 09:29 | -6.90422 | 107.58643 | 2476 ft | 141 kts | 289° |
| 2026-04-17 09:29 | -6.90118 | 107.57766 | 2438 ft | 111 kts | 288° |
| 2026-04-17 09:30 | -6.89967 | 107.57325 | 2438 ft | 34 kts | 289° |
| 2026-04-17 09:30 | -6.89899 | 107.57123 | 2438 ft | 26 kts | 289° |
| 2026-04-17 09:30 | -6.89866 | 107.57027 | 2438 ft | 21 kts | 289° |
| 2026-04-17 09:30 | -6.90767 | 107.59647 | 2643 ft | 141 kts | 289° |
| 2026-04-17 09:31 | -6.90446 | 107.58716 | 2485 ft | 141 kts | 289° |
| 2026-04-17 09:31 | -6.90138 | 107.57824 | 2438 ft | 115 kts | 288° |
| 2026-04-17 09:31 | -6.89974 | 107.57344 | 2438 ft | 34 kts | 289° |
| 2026-04-17 09:31 | -6.89918 | 107.57180 | 2438 ft | 29 kts | 289° |
| 2026-04-17 09:32 | -6.89867 | 107.57029 | 2438 ft | 21 kts | 289° |
| 2026-04-17 09:33 | -6.89853 | 107.56989 | 2438 ft | 8 kts | 289° |
| 2026-04-17 09:33 | -6.89852 | 107.56967 | 2438 ft | 3 kts | 240° |
| 2026-04-17 09:34 | -6.89870 | 107.56960 | 2438 ft | 5 kts | 171° |
| 2026-04-17 09:34 | -6.89879 | 107.57005 | 2438 ft | 10 kts | 78° |
| 2026-04-17 09:34 | -6.89875 | 107.57052 | 2438 ft | 9 kts | 105° |
| 2026-04-17 09:34 | -6.89901 | 107.57132 | 2438 ft | 15 kts | 108° |
| 2026-04-17 09:35 | -6.89943 | 107.57253 | 2438 ft | 21 kts | 109° |
| 2026-04-17 09:35 | -6.89997 | 107.57410 | 2438 ft | 26 kts | 108° |
| 2026-04-17 09:35 | -6.90055 | 107.57584 | 2438 ft | 26 kts | 109° |
| 2026-04-17 09:35 | -6.90099 | 107.57710 | 2438 ft | 11 kts | 109° |
| 2026-04-17 09:36 | -6.90125 | 107.57753 | 2438 ft | 8 kts | 152° |
| 2026-04-17 09:36 | -6.90185 | 107.57744 | 2438 ft | 9 kts | 200° |
| 2026-04-17 09:36 | -6.90238 | 107.57728 | 2438 ft | 7 kts | 186° |
| 2026-04-17 09:36 | -6.90269 | 107.57742 | 2438 ft | 5 kts | 106° |
| 2026-04-17 09:37 | -6.90276 | 107.57789 | 2438 ft | 10 kts | 97° |
| 2026-04-17 09:37 | -6.90284 | 107.57847 | 2438 ft | 8 kts | 96° |
| 2026-04-17 09:37 | -6.90289 | 107.57896 | 2438 ft | 6 kts | 96° |
| 2026-04-17 09:37 | -6.90293 | 107.57927 | 2438 ft | 3 kts | 107° |
| 2026-04-17 09:38 | -6.90301 | 107.57939 | 2438 ft | 1 kts | 137° |
| 2026-04-17 09:38 | -6.90308 | 107.57943 | 2438 ft | 1 kts | 161° |
| 2026-04-17 09:38 | -6.90313 | 107.57943 | 2438 ft | 1 kts | 179° |
| 2026-04-17 09:38 | -6.90318 | 107.57943 | 2438 ft | 0 kts | 187° |